createdAt,value
2022-09-24T09:20:41.663Z,16.60
2022-09-24T09:23:16.639Z,16.70
2022-09-24T09:25:51.207Z,16.90
2022-09-24T09:28:19.228Z,17.10
2022-09-24T09:31:00.884Z,17.20
2022-09-24T09:33:43.394Z,17.20
2022-09-24T09:36:35.828Z,17.20
2022-09-24T09:39:17.923Z,17.20
2022-09-24T09:41:51.861Z,17.20
2022-09-24T09:44:25.666Z,17.30
2022-09-24T09:47:02.365Z,17.30
2022-09-24T09:49:36.356Z,17.40
2022-09-24T09:52:14.053Z,17.30
2022-09-24T09:54:43.421Z,17.30
2022-09-24T09:57:17.696Z,17.70
2022-09-24T09:59:49.440Z,17.30
2022-09-24T10:02:25.017Z,17.20
2022-09-24T10:04:55.891Z,17.30
2022-09-24T10:07:24.245Z,17.20
2022-09-24T10:10:03.980Z,17.30
2022-09-24T10:12:31.951Z,17.20
2022-09-24T10:15:01.933Z,17.10
2022-09-24T10:17:36.024Z,17.00
2022-09-24T10:20:10.757Z,17.00
2022-09-24T10:22:39.557Z,17.00
2022-09-24T10:25:08.275Z,17.10
2022-09-24T10:27:38.261Z,17.10
2022-09-24T10:30:31.926Z,17.40
2022-09-24T10:33:05.262Z,17.40
2022-09-24T10:35:35.808Z,17.40
2022-09-24T10:38:16.137Z,17.50
2022-09-24T10:40:44.152Z,17.50
2022-09-24T10:43:19.080Z,17.60
2022-09-24T10:46:21.668Z,17.60
2022-09-24T10:48:59.609Z,17.60
2022-09-24T10:51:36.565Z,17.70
2022-09-24T10:54:23.639Z,17.80
2022-09-24T11:31:14.533Z,17.80
2022-09-24T11:34:05.579Z,19.20
2022-09-24T11:36:48.738Z,19.30
2022-09-24T11:39:31.548Z,19.30
2022-09-24T11:42:09.161Z,19.20
2022-09-24T11:45:11.054Z,19.10
2022-09-24T11:47:54.131Z,19.00
2022-09-24T11:50:33.535Z,19.00
2022-09-24T11:53:07.608Z,19.20
2022-09-24T11:55:39.561Z,19.30
2022-09-24T11:58:16.599Z,19.10
2022-09-24T12:00:51.334Z,19.00
2022-09-24T12:03:26.223Z,19.00
2022-09-24T12:06:00.569Z,19.00
2022-09-24T12:08:36.260Z,19.00
2022-09-24T12:11:09.537Z,19.10
2022-09-24T12:13:42.290Z,19.10
2022-09-24T12:16:14.453Z,19.20
2022-09-24T12:18:50.457Z,19.20
2022-09-24T12:21:20.953Z,19.30
2022-09-24T12:23:52.054Z,19.40
2022-09-24T12:26:21.984Z,19.40
2022-09-24T12:29:13.953Z,19.20
2022-09-24T12:32:06.733Z,19.20
2022-09-24T12:34:47.100Z,19.00
2022-09-24T12:37:18.018Z,18.90
2022-09-24T12:39:54.469Z,18.90
2022-09-24T12:42:25.936Z,18.80
2022-09-24T12:44:57.495Z,18.80
2022-09-24T12:47:27.973Z,18.80
2022-09-24T12:49:58.785Z,18.90
2022-09-24T12:52:32.480Z,19.00
2022-09-24T12:55:03.671Z,19.10
2022-09-24T12:57:36.484Z,19.20
2022-09-24T13:00:27.000Z,19.20
2022-09-24T13:02:56.596Z,19.00
2022-09-24T13:05:30.211Z,19.10
2022-09-24T13:08:01.251Z,19.00
2022-09-24T13:10:31.565Z,19.00
2022-09-24T13:13:01.135Z,19.00
2022-09-24T13:15:34.384Z,19.00
2022-09-24T13:18:21.458Z,19.00
2022-09-24T13:21:01.078Z,19.10
2022-09-24T13:23:35.276Z,19.20
2022-09-24T13:26:04.970Z,19.20
2022-09-24T13:28:42.596Z,19.00
2022-09-24T13:31:23.421Z,18.90
2022-09-24T13:33:56.354Z,18.90
2022-09-24T13:36:31.039Z,18.80
2022-09-24T13:39:04.979Z,18.90
2022-09-24T13:41:43.594Z,19.00
2022-09-24T13:44:18.276Z,19.00
2022-09-24T13:46:48.594Z,19.00
2022-09-24T13:49:20.202Z,18.90
2022-09-24T13:51:55.130Z,19.00
2022-09-24T13:54:26.301Z,18.90
2022-09-24T13:57:00.196Z,18.90
2022-09-24T13:59:28.676Z,19.00
2022-09-24T14:01:57.078Z,19.00
2022-09-24T14:04:26.420Z,18.90
2022-09-24T14:06:57.315Z,18.80
2022-09-24T14:09:29.270Z,18.80
2022-09-24T14:11:59.030Z,18.70
2022-09-24T16:09:46.451Z,18.50
2022-09-24T16:12:15.915Z,15.30
2022-09-24T16:14:45.153Z,15.30
2022-09-24T16:17:13.121Z,15.20
2022-09-24T16:19:41.014Z,15.20
2022-09-24T16:22:08.929Z,15.20
2022-09-24T16:24:36.942Z,15.20
2022-09-24T16:27:05.002Z,15.20
2022-09-24T16:29:32.904Z,15.10
2022-09-24T16:32:02.976Z,15.10
2022-09-24T17:34:25.943Z,15.10
2022-09-24T18:51:37.090Z,14.00
2022-09-24T18:54:07.372Z,13.20
2022-09-24T18:56:36.129Z,13.20
